createdAt,value
2018-09-17T00:00:25.576Z,87.40
2018-09-17T00:00:58.854Z,87.50
2018-09-17T00:01:32.060Z,87.60
2018-09-17T00:02:05.538Z,87.50
2018-09-17T00:02:38.747Z,87.60
2018-09-17T00:03:11.942Z,87.70
2018-09-17T00:03:45.447Z,87.70
2018-09-17T00:04:18.614Z,87.80
2018-09-17T00:04:51.791Z,87.90
2018-09-17T00:05:24.977Z,87.90
2018-09-17T00:05:58.163Z,88.00
2018-09-17T00:06:31.351Z,88.10
2018-09-17T00:07:04.535Z,88.80
2018-09-17T00:07:37.722Z,88.10
2018-09-17T00:08:10.955Z,88.20
2018-09-17T00:08:44.171Z,88.30
2018-09-17T00:09:17.347Z,88.30
2018-09-17T00:09:50.500Z,88.30
2018-09-17T00:10:23.683Z,88.40
2018-09-17T00:10:56.859Z,88.60
2018-09-17T00:11:30.030Z,88.60
2018-09-17T00:12:03.214Z,88.50
2018-09-17T00:12:36.385Z,88.50
2018-09-17T00:13:09.564Z,88.50
2018-09-17T00:13:42.750Z,88.50
2018-09-17T00:14:16.045Z,88.60
2018-09-17T00:14:49.228Z,88.60
2018-09-17T00:15:22.369Z,88.80
2018-09-17T00:15:55.530Z,88.90
2018-09-17T00:16:28.731Z,89.10
2018-09-17T00:17:01.911Z,89.20
2018-09-17T00:17:35.220Z,89.10
2018-09-17T00:18:08.543Z,89.10
2018-09-17T00:18:41.700Z,89.10
2018-09-17T00:19:14.883Z,89.30
2018-09-17T00:19:48.222Z,89.40
2018-09-17T00:20:21.366Z,89.50
2018-09-17T00:20:54.559Z,89.50
2018-09-17T00:21:27.713Z,89.60
2018-09-17T00:22:00.859Z,89.60
2018-09-17T00:22:34.098Z,89.60
2018-09-17T00:23:07.305Z,89.70
2018-09-17T00:23:40.557Z,89.80
2018-09-17T00:24:13.737Z,89.80
2018-09-17T00:24:46.906Z,89.90
2018-09-17T00:25:20.103Z,90.00
2018-09-17T00:25:53.251Z,90.00
2018-09-17T00:26:26.436Z,90.00
2018-09-17T00:26:59.603Z,90.00
2018-09-17T00:27:32.746Z,90.00
2018-09-17T00:28:06.008Z,90.00
2018-09-17T00:28:39.227Z,90.00
2018-09-17T00:29:12.378Z,90.00
2018-09-17T00:29:45.527Z,90.10
2018-09-17T00:30:18.691Z,90.00
2018-09-17T00:30:52.005Z,90.00
2018-09-17T00:31:25.146Z,90.10
2018-09-17T00:31:58.295Z,90.10
2018-09-17T00:32:31.467Z,90.10
2018-09-17T00:33:04.690Z,90.20
2018-09-17T00:33:37.852Z,90.20
2018-09-17T00:34:11.492Z,90.20
2018-09-17T00:34:44.721Z,90.20
2018-09-17T00:35:17.941Z,90.20
2018-09-17T00:35:51.707Z,90.20
2018-09-17T00:36:24.918Z,90.20
2018-09-17T00:36:58.089Z,90.20
2018-09-17T00:37:31.301Z,90.30
2018-09-17T00:38:04.459Z,90.40
2018-09-17T00:38:37.651Z,90.40
2018-09-17T00:39:13.016Z,90.30
2018-09-17T00:39:46.228Z,90.40
2018-09-17T00:40:19.439Z,90.40
2018-09-17T00:40:52.617Z,90.50
2018-09-17T00:41:25.759Z,90.50
2018-09-17T00:41:58.918Z,90.50
2018-09-17T00:42:32.100Z,90.50
2018-09-17T00:43:05.436Z,90.50
2018-09-17T00:43:38.670Z,90.50
2018-09-17T00:44:11.822Z,90.60
2018-09-17T00:44:44.937Z,90.60
2018-09-17T00:45:18.107Z,90.50
2018-09-17T00:45:51.281Z,90.60
2018-09-17T00:46:24.471Z,90.60
2018-09-17T00:46:57.822Z,90.60
2018-09-17T00:47:30.999Z,90.60
2018-09-17T00:48:04.145Z,90.70
2018-09-17T00:48:37.566Z,90.70
2018-09-17T00:49:10.760Z,90.80
2018-09-17T00:49:43.955Z,90.80
2018-09-17T00:50:17.129Z,90.80
2018-09-17T00:50:50.360Z,90.80
2018-09-17T00:51:23.516Z,90.90
2018-09-17T00:51:56.644Z,91.00
2018-09-17T00:52:29.798Z,91.00
2018-09-17T00:53:02.989Z,91.10
2018-09-17T00:53:36.150Z,91.10
2018-09-17T00:54:09.297Z,91.10
2018-09-17T00:54:42.478Z,91.20
2018-09-17T00:55:15.701Z,91.20
2018-09-17T00:55:48.856Z,91.20
2018-09-17T00:56:22.055Z,91.20
2018-09-17T00:56:55.267Z,91.10
2018-09-17T00:57:28.442Z,91.10
2018-09-17T00:58:01.647Z,91.10
2018-09-17T00:58:34.784Z,91.10
2018-09-17T00:59:08.011Z,91.00
2018-09-17T00:59:41.126Z,91.00
2018-09-17T01:00:14.331Z,91.00
2018-09-17T01:00:47.477Z,91.00
2018-09-17T01:01:20.685Z,90.90
2018-09-17T01:01:53.849Z,90.90
2018-09-17T01:02:26.990Z,90.90
2018-09-17T01:03:00.217Z,90.90
2018-09-17T01:03:33.378Z,90.90
2018-09-17T01:04:06.697Z,90.90
2018-09-17T01:04:39.890Z,90.90
2018-09-17T01:05:13.063Z,90.90
2018-09-17T01:05:46.251Z,90.80
2018-09-17T01:06:19.478Z,90.80
2018-09-17T01:06:52.625Z,90.80
2018-09-17T01:07:25.796Z,90.80
2018-09-17T01:07:58.973Z,90.80
2018-09-17T01:08:32.166Z,90.90
2018-09-17T01:09:06.332Z,90.90
2018-09-17T01:09:42.096Z,90.90
2018-09-17T01:10:15.276Z,91.00
2018-09-17T01:10:48.687Z,91.00
2018-09-17T01:11:21.851Z,91.10
2018-09-17T01:11:55.155Z,91.10
2018-09-17T01:12:28.362Z,91.20
2018-09-17T01:13:01.663Z,91.20
2018-09-17T01:13:35.434Z,91.30
2018-09-17T01:14:08.593Z,91.30
2018-09-17T01:14:41.816Z,91.40
2018-09-17T01:15:14.915Z,91.40
2018-09-17T01:15:48.075Z,91.40
2018-09-17T01:16:21.214Z,91.40
2018-09-17T01:16:54.435Z,91.50
2018-09-17T01:17:27.588Z,91.50
2018-09-17T01:18:00.759Z,91.50
2018-09-17T01:18:33.912Z,91.50
2018-09-17T01:19:07.126Z,91.50
2018-09-17T01:19:40.322Z,91.40
2018-09-17T01:20:13.493Z,91.40
2018-09-17T01:20:46.771Z,91.40
2018-09-17T01:21:20.443Z,91.40
2018-09-17T01:21:53.591Z,91.50
2018-09-17T01:22:26.843Z,91.50
2018-09-17T01:23:00.047Z,91.50
2018-09-17T01:23:33.258Z,91.50
2018-09-17T01:24:06.419Z,91.50
2018-09-17T01:24:39.638Z,91.40
2018-09-17T01:25:12.838Z,91.50
2018-09-17T01:25:46.007Z,91.50
2018-09-17T01:26:19.148Z,91.50
2018-09-17T01:26:52.331Z,91.40
2018-09-17T01:27:25.514Z,91.40
2018-09-17T01:27:58.651Z,91.40
2018-09-17T01:28:31.809Z,91.40
2018-09-17T01:29:05.373Z,91.30
2018-09-17T01:29:38.527Z,91.30
2018-09-17T01:30:11.771Z,91.30
2018-09-17T01:30:44.947Z,91.20
2018-09-17T01:31:18.295Z,91.20
2018-09-17T01:31:51.920Z,91.10
2018-09-17T01:32:25.104Z,91.40
2018-09-17T01:32:58.308Z,91.20
2018-09-17T01:33:31.626Z,91.30
2018-09-17T01:34:04.794Z,91.20
2018-09-17T01:34:37.971Z,91.30
2018-09-17T01:35:11.149Z,91.30
2018-09-17T01:35:44.326Z,91.30
2018-09-17T01:36:17.501Z,91.30
2018-09-17T01:36:50.646Z,91.30
2018-09-17T01:37:23.837Z,91.30
2018-09-17T01:37:57.012Z,91.30
2018-09-17T01:38:30.183Z,91.30
2018-09-17T01:39:03.478Z,91.40
2018-09-17T01:39:36.647Z,91.30
2018-09-17T01:40:09.930Z,91.30
2018-09-17T01:40:43.126Z,91.20
2018-09-17T01:41:16.304Z,91.20
2018-09-17T01:41:49.498Z,91.20
2018-09-17T01:42:22.678Z,91.20
2018-09-17T01:42:56.352Z,91.20
2018-09-17T01:43:29.539Z,91.20
2018-09-17T01:44:02.717Z,91.20
2018-09-17T01:44:35.900Z,91.10
2018-09-17T01:45:09.075Z,91.10
2018-09-17T01:45:42.259Z,91.10
2018-09-17T01:46:15.513Z,91.10
2018-09-17T01:46:48.674Z,91.10
2018-09-17T01:47:21.877Z,91.10
2018-09-17T01:47:55.014Z,91.10
2018-09-17T01:48:28.178Z,91.10
2018-09-17T01:49:02.057Z,91.40
2018-09-17T01:49:35.702Z,91.30
2018-09-17T01:50:08.865Z,91.10
2018-09-17T01:50:42.051Z,91.00
2018-09-17T01:51:15.707Z,91.00
2018-09-17T01:51:48.867Z,90.90
2018-09-17T01:52:22.005Z,90.90
2018-09-17T01:52:55.224Z,90.90
2018-09-17T01:53:28.406Z,90.90
2018-09-17T01:54:01.561Z,91.00
2018-09-17T01:54:34.817Z,90.70
2018-09-17T01:55:08.025Z,90.90
2018-09-17T01:55:41.247Z,91.00
2018-09-17T01:56:14.437Z,91.00
2018-09-17T01:56:47.649Z,91.00
2018-09-17T01:57:20.807Z,91.00
2018-09-17T01:57:53.971Z,91.00
2018-09-17T01:58:27.134Z,91.00
2018-09-17T01:59:00.330Z,91.00
2018-09-17T01:59:33.500Z,91.00
2018-09-17T02:00:07.257Z,91.00
2018-09-17T02:00:40.783Z,91.10
2018-09-17T02:01:13.960Z,91.10
2018-09-17T02:01:47.770Z,91.10
2018-09-17T02:02:20.974Z,91.20
2018-09-17T02:02:54.171Z,91.20
2018-09-17T02:03:27.362Z,91.30
2018-09-17T02:04:00.523Z,91.60
2018-09-17T02:04:33.700Z,91.40
2018-09-17T02:05:07.127Z,91.40
2018-09-17T02:05:40.407Z,91.40
2018-09-17T02:06:13.580Z,91.40
2018-09-17T02:06:46.929Z,91.50
2018-09-17T02:07:20.218Z,91.50
2018-09-17T02:07:53.433Z,91.60
2018-09-17T02:08:26.655Z,91.60
2018-09-17T02:08:59.815Z,91.60
2018-09-17T02:09:33.056Z,91.70
2018-09-17T02:10:06.645Z,91.80
2018-09-17T02:10:39.801Z,91.90
2018-09-17T02:11:12.974Z,91.90
2018-09-17T02:11:46.133Z,91.90
2018-09-17T02:12:19.330Z,91.90
2018-09-17T02:12:52.487Z,91.80
2018-09-17T02:13:26.068Z,91.90
2018-09-17T02:13:59.259Z,91.90
2018-09-17T02:14:32.420Z,91.90
2018-09-17T02:15:05.590Z,91.80
2018-09-17T02:15:38.769Z,91.80
2018-09-17T02:16:12.157Z,91.80
2018-09-17T02:16:45.337Z,91.80
2018-09-17T02:17:18.530Z,91.90
2018-09-17T02:17:51.745Z,91.90
2018-09-17T02:18:25.008Z,91.90
2018-09-17T02:18:58.207Z,92.00
2018-09-17T02:19:31.352Z,92.00
2018-09-17T02:20:04.542Z,92.00
2018-09-17T02:20:37.909Z,92.00
2018-09-17T02:21:11.559Z,92.10
2018-09-17T02:21:44.711Z,92.00
2018-09-17T02:22:17.966Z,92.10
2018-09-17T02:22:51.128Z,92.10
2018-09-17T02:23:24.372Z,92.10
2018-09-17T02:23:57.533Z,92.10
2018-09-17T02:24:30.851Z,92.10
2018-09-17T02:25:04.052Z,92.10
2018-09-17T02:25:37.242Z,92.40
2018-09-17T02:26:10.442Z,92.20
2018-09-17T02:26:43.623Z,92.20
2018-09-17T02:27:18.022Z,92.20
2018-09-17T02:27:51.207Z,92.20
2018-09-17T02:28:24.354Z,92.20
2018-09-17T02:28:57.837Z,92.20
2018-09-17T02:29:31.021Z,92.20
2018-09-17T02:30:04.268Z,92.20
2018-09-17T02:30:37.541Z,92.20
2018-09-17T02:31:10.713Z,92.20
2018-09-17T02:31:43.889Z,92.20
2018-09-17T02:32:17.648Z,92.20
2018-09-17T02:32:51.414Z,92.20
2018-09-17T02:33:25.438Z,92.20
2018-09-17T02:33:58.649Z,92.20
2018-09-17T02:34:32.837Z,92.20
2018-09-17T02:35:06.173Z,92.20
2018-09-17T02:35:39.703Z,92.20
2018-09-17T02:36:12.866Z,92.20
2018-09-17T02:36:46.616Z,92.20
2018-09-17T02:37:19.824Z,92.20
2018-09-17T02:37:53.027Z,92.30
2018-09-17T02:38:26.228Z,92.20
2018-09-17T02:39:00.578Z,92.20
2018-09-17T02:39:33.869Z,92.20
2018-09-17T02:40:11.383Z,92.20
2018-09-17T02:40:44.506Z,92.20
2018-09-17T02:41:17.669Z,92.20
2018-09-17T02:41:50.813Z,92.20
2018-09-17T02:42:23.997Z,92.60
2018-09-17T02:42:57.189Z,92.30
2018-09-17T02:43:31.374Z,92.30
2018-09-17T02:44:04.562Z,92.40
2018-09-17T02:44:38.490Z,92.40
2018-09-17T02:45:11.759Z,92.30
2018-09-17T02:45:44.930Z,92.30
2018-09-17T02:46:18.211Z,92.30
2018-09-17T02:46:51.395Z,92.30
2018-09-17T02:47:24.647Z,92.30
2018-09-17T02:47:57.759Z,92.30
2018-09-17T02:48:30.922Z,92.30
2018-09-17T02:49:04.257Z,92.30
2018-09-17T02:49:37.438Z,92.30
2018-09-17T02:50:10.644Z,92.30
2018-09-17T02:50:43.977Z,92.30
2018-09-17T02:51:17.095Z,92.30
2018-09-17T02:51:50.442Z,92.40
2018-09-17T02:52:23.629Z,92.70
2018-09-17T02:52:56.807Z,92.30
2018-09-17T02:53:30.076Z,92.30
2018-09-17T02:54:03.190Z,92.30
2018-09-17T02:54:36.530Z,92.50
2018-09-17T02:55:10.575Z,92.30
2018-09-17T02:55:43.764Z,92.30
2018-09-17T02:56:16.940Z,92.40
2018-09-17T02:56:50.282Z,92.40
2018-09-17T02:57:23.484Z,92.40
2018-09-17T02:57:56.661Z,92.40
2018-09-17T02:58:29.870Z,92.40
2018-09-17T02:59:03.067Z,92.40
2018-09-17T02:59:36.902Z,92.40
2018-09-17T03:00:10.705Z,92.30
2018-09-17T03:00:43.880Z,92.30
2018-09-17T03:01:17.093Z,92.20
2018-09-17T03:01:50.289Z,92.20
2018-09-17T03:02:23.528Z,92.20
2018-09-17T03:02:56.701Z,92.30
2018-09-17T03:03:29.830Z,92.30
2018-09-17T03:04:02.999Z,92.30
2018-09-17T03:04:36.156Z,92.30
2018-09-17T03:05:09.591Z,92.30
2018-09-17T03:05:42.762Z,92.30
2018-09-17T03:06:16.892Z,92.30
2018-09-17T03:06:50.230Z,92.30
2018-09-17T03:07:24.606Z,92.30
2018-09-17T03:07:57.798Z,92.20
2018-09-17T03:08:30.938Z,92.20
2018-09-17T03:09:06.170Z,92.20
2018-09-17T03:09:39.326Z,92.10
2018-09-17T03:10:12.512Z,92.20
2018-09-17T03:10:46.330Z,92.10
2018-09-17T03:11:19.485Z,92.10
2018-09-17T03:11:52.634Z,92.20
2018-09-17T03:12:25.831Z,92.10
2018-09-17T03:12:58.991Z,92.20
2018-09-17T03:13:32.310Z,92.10
2018-09-17T03:14:05.635Z,92.00
2018-09-17T03:14:38.833Z,92.10
2018-09-17T03:15:23.540Z,92.10
2018-09-17T03:15:56.714Z,92.00
2018-09-17T03:16:29.992Z,92.00
2018-09-17T03:17:09.234Z,92.10
2018-09-17T03:17:42.418Z,92.10
2018-09-17T03:18:16.182Z,92.10
2018-09-17T03:18:58.110Z,92.10
2018-09-17T03:19:31.287Z,92.10
2018-09-17T03:20:04.470Z,92.10
2018-09-17T03:20:37.699Z,92.10
2018-09-17T03:21:17.666Z,92.10
2018-09-17T03:21:50.847Z,92.10
2018-09-17T03:22:24.040Z,92.10
2018-09-17T03:22:57.206Z,92.10
2018-09-17T03:23:30.636Z,92.10
2018-09-17T03:24:03.794Z,92.10
2018-09-17T03:24:37.231Z,92.10
2018-09-17T03:25:10.375Z,92.10
2018-09-17T03:25:43.609Z,92.10
2018-09-17T03:26:17.095Z,92.10
2018-09-17T03:26:50.288Z,92.10
2018-09-17T03:27:23.406Z,92.10
2018-09-17T03:27:56.534Z,92.10
2018-09-17T03:28:29.720Z,92.10
2018-09-17T03:29:03.405Z,92.00
2018-09-17T03:29:36.760Z,91.90
2018-09-17T03:30:10.021Z,91.90
2018-09-17T03:30:43.811Z,91.90
2018-09-17T03:31:17.291Z,91.90
2018-09-17T03:31:50.449Z,91.90
2018-09-17T03:32:23.621Z,91.90
2018-09-17T03:32:57.134Z,92.00
2018-09-17T03:33:30.491Z,91.90
2018-09-17T03:34:03.659Z,92.00
2018-09-17T03:34:36.840Z,92.00
2018-09-17T03:35:10.026Z,92.30
2018-09-17T03:35:43.178Z,92.00
2018-09-17T03:36:16.574Z,92.00
2018-09-17T03:36:49.734Z,92.00
2018-09-17T03:37:26.193Z,92.00
2018-09-17T03:38:14.066Z,92.00
2018-09-17T03:38:48.193Z,92.10
2018-09-17T03:39:21.387Z,92.10
2018-09-17T03:39:54.766Z,92.10
2018-09-17T03:40:27.911Z,92.10
2018-09-17T03:41:02.674Z,92.00
2018-09-17T03:41:42.324Z,92.00
2018-09-17T03:42:15.494Z,91.90
2018-09-17T03:42:48.665Z,91.90
2018-09-17T03:43:21.878Z,91.80
2018-09-17T03:43:55.079Z,91.80
2018-09-17T03:44:28.292Z,91.80
2018-09-17T03:45:01.458Z,91.80
2018-09-17T03:45:34.691Z,91.80
2018-09-17T03:46:08.028Z,91.90
2018-09-17T03:46:41.323Z,91.80
2018-09-17T03:47:14.434Z,91.80
2018-09-17T03:47:47.640Z,91.80
2018-09-17T03:48:20.894Z,91.80
2018-09-17T03:48:54.072Z,91.80
2018-09-17T03:49:27.312Z,91.80
2018-09-17T03:50:00.510Z,91.80
2018-09-17T03:50:33.672Z,91.80
2018-09-17T03:51:07.599Z,92.10
2018-09-17T03:51:40.803Z,91.80
2018-09-17T03:52:13.992Z,91.80
2018-09-17T03:52:47.119Z,91.80
2018-09-17T03:53:20.333Z,91.90
2018-09-17T03:53:53.488Z,91.90
2018-09-17T03:54:26.651Z,91.90
2018-09-17T03:54:59.828Z,91.90
2018-09-17T03:55:33.089Z,92.00
2018-09-17T03:56:06.414Z,92.00
2018-09-17T03:56:39.605Z,92.00
2018-09-17T03:57:13.286Z,92.10
2018-09-17T03:57:46.845Z,92.20
2018-09-17T03:58:20.210Z,92.20
2018-09-17T03:58:53.524Z,92.10
2018-09-17T03:59:26.662Z,92.10
2018-09-17T03:59:59.895Z,92.00
2018-09-17T04:00:33.093Z,91.90
2018-09-17T04:01:06.559Z,91.80
2018-09-17T04:01:39.715Z,91.70
2018-09-17T04:02:13.116Z,91.70
2018-09-17T04:02:46.379Z,91.70
2018-09-17T04:03:19.820Z,91.60
2018-09-17T04:03:53.247Z,91.50
2018-09-17T04:04:26.427Z,91.30
2018-09-17T04:04:59.779Z,91.20
2018-09-17T04:05:33.101Z,91.20
2018-09-17T04:06:06.238Z,91.20
2018-09-17T04:06:39.391Z,91.30
2018-09-17T04:07:12.624Z,91.30
2018-09-17T04:07:45.788Z,91.40
2018-09-17T04:08:19.178Z,91.40
2018-09-17T04:08:52.386Z,91.40
2018-09-17T04:09:25.591Z,91.40
2018-09-17T04:09:58.771Z,91.40
2018-09-17T04:10:32.088Z,91.40
2018-09-17T04:11:05.389Z,91.70
2018-09-17T04:11:38.569Z,91.30
2018-09-17T04:12:12.055Z,91.00
2018-09-17T04:12:45.221Z,90.90
2018-09-17T04:13:18.421Z,90.80
2018-09-17T04:13:51.595Z,90.80
2018-09-17T04:14:24.741Z,90.80
2018-09-17T04:14:57.876Z,90.80
2018-09-17T04:15:31.073Z,90.90
2018-09-17T04:16:04.258Z,91.00
2018-09-17T04:16:38.005Z,91.00
2018-09-17T04:17:11.367Z,91.00
2018-09-17T04:17:44.506Z,91.00
2018-09-17T04:18:17.699Z,91.10
2018-09-17T04:18:50.900Z,91.20
2018-09-17T04:19:24.231Z,91.20
2018-09-17T04:19:57.554Z,91.30
2018-09-17T04:20:30.804Z,91.30
2018-09-17T04:21:04.054Z,91.30
2018-09-17T04:21:37.386Z,91.70
2018-09-17T04:22:10.909Z,91.30
2018-09-17T04:22:44.075Z,91.30
2018-09-17T04:23:21.894Z,91.60
2018-09-17T04:23:55.154Z,91.40
2018-09-17T04:24:28.575Z,91.40
2018-09-17T04:25:01.752Z,91.40
2018-09-17T04:25:34.912Z,91.40
2018-09-17T04:26:11.050Z,91.40
2018-09-17T04:26:44.508Z,91.40
2018-09-17T04:27:17.680Z,91.40
2018-09-17T04:27:51.179Z,91.40
2018-09-17T04:28:24.562Z,91.50
2018-09-17T04:28:57.989Z,91.50
2018-09-17T04:29:31.134Z,91.50
2018-09-17T04:30:04.597Z,91.50
2018-09-17T04:30:37.767Z,91.50
2018-09-17T04:31:10.960Z,91.50
2018-09-17T04:31:44.302Z,91.50
2018-09-17T04:32:17.624Z,91.50
2018-09-17T04:32:51.411Z,91.40
2018-09-17T04:33:25.035Z,91.40
2018-09-17T04:33:58.473Z,91.40
2018-09-17T04:34:31.648Z,91.50
2018-09-17T04:35:06.277Z,91.50
2018-09-17T04:35:39.407Z,91.50
2018-09-17T04:36:13.249Z,91.50
2018-09-17T04:36:46.520Z,91.50
2018-09-17T04:37:19.692Z,91.50
2018-09-17T04:37:56.716Z,91.40
2018-09-17T04:38:30.207Z,91.40
2018-09-17T04:39:03.786Z,91.50
2018-09-17T04:39:38.049Z,91.50
2018-09-17T04:40:11.337Z,91.50
2018-09-17T04:40:44.804Z,91.50
2018-09-17T04:41:18.509Z,91.50
2018-09-17T04:41:52.386Z,91.40
2018-09-17T04:42:25.772Z,91.40
2018-09-17T04:42:59.274Z,91.40
2018-09-17T04:43:32.775Z,91.50
2018-09-17T04:44:06.478Z,91.50
2018-09-17T04:44:39.935Z,91.60
2018-09-17T04:45:13.608Z,91.60
2018-09-17T04:45:47.162Z,91.60
2018-09-17T04:46:20.919Z,91.60
2018-09-17T04:46:54.455Z,91.60
2018-09-17T04:47:27.953Z,91.50
2018-09-17T04:48:01.406Z,91.50
2018-09-17T04:48:34.803Z,91.60
2018-09-17T04:49:08.579Z,91.60
2018-09-17T04:49:42.527Z,91.60
2018-09-17T04:50:15.700Z,91.50
2018-09-17T04:50:50.001Z,91.30
2018-09-17T04:51:23.386Z,91.10
2018-09-17T04:51:57.074Z,91.10
2018-09-17T04:52:31.073Z,91.10
2018-09-17T04:53:04.472Z,91.10
2018-09-17T04:53:37.876Z,91.20
2018-09-17T04:54:11.067Z,91.20
2018-09-17T04:54:44.255Z,91.20
2018-09-17T04:55:17.419Z,91.30
2018-09-17T04:55:50.581Z,91.30
2018-09-17T04:56:23.842Z,91.30
2018-09-17T04:56:57.275Z,91.30
2018-09-17T04:57:31.130Z,91.30
2018-09-17T04:58:04.903Z,91.40
2018-09-17T04:58:38.386Z,91.40
2018-09-17T04:59:11.601Z,91.40
2018-09-17T04:59:44.859Z,91.40
2018-09-17T05:00:18.147Z,91.40
2018-09-17T05:00:51.487Z,91.40
2018-09-17T05:01:24.700Z,91.40
2018-09-17T05:01:58.499Z,91.40
2018-09-17T05:02:31.754Z,91.70
2018-09-17T05:03:04.998Z,91.40
2018-09-17T05:03:38.468Z,91.40
2018-09-17T05:04:12.072Z,91.40
2018-09-17T05:04:45.656Z,91.40
2018-09-17T05:05:19.158Z,91.50
2018-09-17T05:05:52.569Z,91.50
2018-09-17T05:06:25.808Z,91.40
2018-09-17T05:06:59.519Z,91.40
2018-09-17T05:07:32.830Z,91.50
2018-09-17T05:08:06.390Z,91.40
2018-09-17T05:08:39.904Z,91.50
2018-09-17T05:09:13.230Z,91.40
2018-09-17T05:09:47.324Z,91.50
2018-09-17T05:10:21.143Z,91.50
2018-09-17T05:10:54.403Z,91.50
2018-09-17T05:11:27.861Z,91.50
2018-09-17T05:12:01.235Z,91.40
2018-09-17T05:12:34.552Z,91.40
2018-09-17T05:13:08.057Z,91.40
2018-09-17T05:13:41.847Z,91.40
2018-09-17T05:14:15.057Z,91.30
2018-09-17T05:14:48.327Z,91.30
2018-09-17T05:15:21.693Z,91.20
2018-09-17T05:15:55.012Z,91.20
2018-09-17T05:16:28.202Z,91.20
2018-09-17T05:17:01.892Z,91.60
2018-09-17T05:17:35.962Z,91.20
2018-09-17T05:18:09.138Z,91.20
2018-09-17T05:18:42.565Z,91.10
2018-09-17T05:19:15.885Z,91.10
2018-09-17T05:19:49.272Z,91.20
2018-09-17T05:20:22.639Z,91.20
2018-09-17T05:20:55.864Z,91.30
2018-09-17T05:21:29.147Z,91.30
2018-09-17T05:22:02.661Z,91.30
2018-09-17T05:22:36.759Z,91.30
2018-09-17T05:23:09.993Z,91.30
2018-09-17T05:23:43.296Z,91.30
2018-09-17T05:24:16.617Z,91.30
2018-09-17T05:24:50.095Z,91.20
2018-09-17T05:25:24.009Z,91.20
2018-09-17T05:25:58.162Z,91.20
2018-09-17T05:26:31.907Z,91.20
2018-09-17T05:27:05.214Z,91.20
2018-09-17T05:27:38.494Z,91.20
2018-09-17T05:28:12.772Z,91.30
2018-09-17T05:28:46.223Z,91.20
2018-09-17T05:29:20.011Z,91.30
2018-09-17T05:29:53.234Z,91.30
2018-09-17T05:30:27.018Z,91.30
2018-09-17T05:31:00.392Z,91.40
2018-09-17T05:31:33.697Z,91.30
2018-09-17T05:32:08.682Z,91.30
2018-09-17T05:32:42.589Z,91.30
2018-09-17T05:33:15.774Z,91.30
2018-09-17T05:33:49.038Z,91.30
2018-09-17T05:34:22.466Z,91.30
2018-09-17T05:34:55.933Z,91.30
2018-09-17T05:35:29.229Z,91.20
2018-09-17T05:36:02.590Z,91.20
2018-09-17T05:36:36.234Z,91.20
2018-09-17T05:37:10.245Z,91.10
2018-09-17T05:37:43.975Z,91.10
2018-09-17T05:38:17.456Z,91.10
2018-09-17T05:38:51.304Z,91.10
2018-09-17T05:39:24.758Z,91.10
2018-09-17T05:39:58.170Z,91.00
2018-09-17T05:40:31.340Z,91.10
2018-09-17T05:41:04.786Z,91.00
2018-09-17T05:41:38.468Z,90.90
2018-09-17T05:42:11.929Z,90.90
2018-09-17T05:42:45.124Z,90.90
2018-09-17T05:43:18.784Z,91.00
2018-09-17T05:43:52.222Z,90.90
2018-09-17T05:44:26.459Z,90.90
2018-09-17T05:45:00.710Z,90.90
2018-09-17T05:45:34.529Z,90.90
2018-09-17T05:46:07.879Z,90.80
2018-09-17T05:46:41.107Z,90.70
2018-09-17T05:47:14.320Z,90.70
2018-09-17T05:47:47.947Z,90.70
2018-09-17T05:48:21.344Z,90.60
2018-09-17T05:48:54.562Z,90.60
2018-09-17T05:49:27.937Z,90.50
2018-09-17T05:50:01.209Z,90.50
2018-09-17T05:50:35.007Z,90.50
2018-09-17T05:51:08.199Z,90.40
2018-09-17T05:51:41.567Z,90.30
2018-09-17T05:52:14.878Z,90.30
2018-09-17T05:52:48.143Z,90.30
2018-09-17T05:53:21.339Z,90.30
2018-09-17T05:53:54.709Z,90.30
2018-09-17T05:54:28.094Z,90.10
2018-09-17T05:55:01.326Z,90.10
2018-09-17T05:55:34.588Z,90.10
2018-09-17T05:56:07.790Z,90.00
2018-09-17T05:56:41.083Z,89.70
2018-09-17T05:57:14.302Z,89.70
2018-09-17T05:57:48.118Z,89.70
2018-09-17T05:58:21.884Z,89.90
2018-09-17T05:58:55.844Z,89.70
2018-09-17T05:59:29.076Z,89.60
2018-09-17T06:00:04.105Z,89.60
2018-09-17T06:00:37.379Z,89.60
2018-09-17T06:01:10.740Z,89.50
2018-09-17T06:01:44.131Z,89.40
2018-09-17T06:02:17.479Z,89.40
2018-09-17T06:02:50.727Z,89.20
2018-09-17T06:03:23.982Z,88.80
2018-09-17T06:03:57.899Z,88.70
2018-09-17T06:04:31.311Z,88.60
2018-09-17T06:05:04.729Z,88.60
2018-09-17T06:05:38.070Z,88.60
2018-09-17T06:06:11.562Z,88.60
2018-09-17T06:06:44.820Z,88.60
2018-09-17T06:07:18.050Z,88.30
2018-09-17T06:07:51.562Z,88.10
2018-09-17T06:08:24.816Z,88.10
2018-09-17T06:08:58.015Z,87.90
2018-09-17T06:09:31.239Z,87.60
2018-09-17T06:10:08.922Z,87.50
2018-09-17T06:10:42.143Z,87.50
2018-09-17T06:11:15.487Z,87.40
2018-09-17T06:11:48.964Z,87.40
2018-09-17T06:12:22.883Z,87.30
2018-09-17T06:12:56.477Z,87.30
2018-09-17T06:13:40.678Z,87.20
2018-09-17T06:14:13.870Z,87.30
2018-09-17T06:14:47.261Z,87.40
2018-09-17T06:15:21.485Z,87.40
2018-09-17T06:16:14.594Z,87.30
2018-09-17T06:16:48.469Z,87.00
2018-09-17T06:17:21.763Z,86.70
2018-09-17T06:17:54.987Z,87.30
2018-09-17T06:18:28.236Z,86.40
2018-09-17T06:19:01.437Z,86.30
2018-09-17T06:19:34.789Z,86.20
2018-09-17T06:20:08.493Z,86.20
2018-09-17T06:20:41.767Z,86.10
2018-09-17T06:21:15.263Z,86.00
2018-09-17T06:21:48.532Z,85.90
2018-09-17T06:22:21.723Z,85.70
2018-09-17T06:22:55.035Z,85.70
2018-09-17T06:23:29.130Z,85.60
2018-09-17T06:24:02.652Z,85.60
2018-09-17T06:24:35.843Z,85.60
2018-09-17T06:25:09.079Z,85.50
2018-09-17T06:25:42.350Z,85.30
2018-09-17T06:26:15.613Z,85.20
2018-09-17T06:26:48.875Z,84.70
2018-09-17T06:27:22.128Z,84.50
2018-09-17T06:27:55.697Z,84.60
2018-09-17T06:28:29.448Z,84.60
2018-09-17T06:29:02.803Z,84.50
2018-09-17T06:29:35.973Z,84.70
2018-09-17T06:30:09.685Z,84.70
2018-09-17T06:30:42.995Z,84.50
2018-09-17T06:31:16.634Z,84.40
2018-09-17T06:31:49.977Z,84.40
2018-09-17T06:32:23.242Z,84.40
2018-09-17T06:32:56.621Z,84.20
2018-09-17T06:33:30.016Z,84.20
2018-09-17T06:34:03.247Z,84.20
2018-09-17T06:34:36.469Z,84.00
2018-09-17T06:35:09.665Z,83.90
2018-09-17T06:35:43.025Z,83.80
2018-09-17T06:36:16.464Z,83.40
2018-09-17T06:36:49.678Z,83.50
2018-09-17T06:37:22.947Z,83.10
2018-09-17T06:37:56.262Z,83.20
2018-09-17T06:38:30.141Z,82.80
2018-09-17T06:39:03.982Z,82.70
2018-09-17T06:39:37.259Z,82.70
2018-09-17T06:40:10.442Z,82.70
2018-09-17T06:40:43.653Z,82.70
2018-09-17T06:41:17.324Z,82.50
2018-09-17T06:41:50.997Z,82.40
2018-09-17T06:42:24.358Z,82.30
2018-09-17T06:42:57.544Z,82.40
2018-09-17T06:43:30.836Z,82.20
2018-09-17T06:44:04.351Z,82.00
2018-09-17T06:44:37.638Z,81.90
2018-09-17T06:45:11.246Z,81.50
2018-09-17T06:45:44.499Z,81.30
2018-09-17T06:46:17.878Z,81.30
2018-09-17T06:46:51.142Z,81.00
2018-09-17T06:47:24.638Z,80.60
2018-09-17T06:47:57.875Z,80.00
2018-09-17T06:48:31.254Z,79.90
2018-09-17T06:49:04.491Z,80.00
2018-09-17T06:49:37.734Z,80.00
2018-09-17T06:50:10.976Z,79.70
2018-09-17T06:50:44.777Z,79.70
2018-09-17T06:51:18.079Z,79.60
2018-09-17T06:51:51.537Z,79.70
2018-09-17T06:52:25.342Z,79.70
2018-09-17T06:52:58.656Z,79.60
2018-09-17T06:53:31.986Z,79.80
2018-09-17T06:54:05.219Z,79.90
2018-09-17T06:54:38.597Z,79.90
2018-09-17T06:55:12.173Z,79.60
2018-09-17T06:55:45.475Z,79.60
2018-09-17T06:56:18.775Z,79.50
2018-09-17T06:56:52.202Z,79.50
2018-09-17T06:57:25.402Z,79.70
2018-09-17T06:57:58.681Z,79.80
2018-09-17T06:58:32.202Z,79.70
2018-09-17T06:59:05.504Z,79.60
2018-09-17T06:59:38.872Z,79.60
2018-09-17T07:00:12.053Z,79.40
2018-09-17T07:00:45.538Z,79.30
2018-09-17T07:01:18.997Z,79.20
2018-09-17T07:01:52.205Z,79.10
2018-09-17T07:02:25.362Z,79.10
2018-09-17T07:02:58.679Z,78.80
2018-09-17T07:03:32.014Z,78.70
2018-09-17T07:04:05.578Z,78.80
2018-09-17T07:04:38.755Z,78.50
2018-09-17T07:05:12.134Z,78.20
2018-09-17T07:05:45.383Z,78.00
2018-09-17T07:06:18.709Z,77.80
2018-09-17T07:06:52.415Z,77.60
2018-09-17T07:07:25.608Z,77.20
2018-09-17T07:07:58.826Z,76.90
2018-09-17T07:08:31.988Z,76.80
2018-09-17T07:09:08.847Z,77.00
2018-09-17T07:09:42.768Z,76.80
2018-09-17T07:10:15.933Z,76.60
2018-09-17T07:10:49.309Z,76.60
2018-09-17T07:11:22.704Z,76.70